Time,TemperatureF,DewpointF,PressureIn,WindDirection,WindDirectionDegrees,WindSpeedMPH,WindSpeedGustMPH,Humidity,HourlyPrecipIn,Conditions,Clouds,dailyrainin,SoftwareType,DateUTC
2013-06-17 00:00:00,66.4,40.7,29.77,West,262,2.0,2.0,39,0.00,,---,0.00,VWS V14.01,2013-06-17 04:00:00,
2013-06-17 00:01:00,66.4,40.7,29.77,West,262,1.0,3.0,39,0.00,,---,0.00,VWS V14.01,2013-06-17 04:01:00,
2013-06-17 00:02:00,66.4,40.7,29.77,West,262,1.0,1.0,39,0.00,,---,0.00,VWS V14.01,2013-06-17 04:02:00,
2013-06-17 00:07:00,66.3,40.6,29.77,West,262,1.0,2.0,39,0.00,,---,0.00,VWS V14.01,2013-06-17 04:07:00,
2013-06-17 00:12:00,66.3,40.6,29.77,West,262,0.0,3.0,39,0.00,,---,0.00,VWS V14.01,2013-06-17 04:12:00,
2013-06-17 00:17:00,66.1,40.5,29.77,West,262,0.0,3.0,39,0.00,,---,0.00,VWS V14.01,2013-06-17 04:17:00,
2013-06-17 00:22:00,66.1,40.5,29.77,West,262,0.0,3.0,39,0.00,,---,0.00,VWS V14.01,2013-06-17 04:22:00,
2013-06-17 00:27:00,66.0,40.4,29.77,West,262,0.0,3.0,39,0.00,,---,0.00,VWS V14.01,2013-06-17 04:27:00,
2013-06-17 00:30:00,66.9,41.2,29.76,West,262,0.0,3.0,39,0.00,,---,0.00,VWS V14.01,2013-06-17 04:30:00,
2013-06-17 00:32:00,65.8,40.2,29.77,West,262,1.0,2.0,39,0.00,,---,0.00,VWS V14.01,2013-06-17 04:32:00,
2013-06-17 00:37:00,65.8,40.2,29.77,West,262,0.0,3.0,39,0.00,,---,0.00,VWS V14.01,2013-06-17 04:37:00,
2013-06-17 00:42:00,65.8,40.2,29.77,NW,304,3.0,6.0,39,0.00,,---,0.00,VWS V14.01,2013-06-17 04:42:00,
2013-06-17 00:47:00,66.1,40.5,29.78,WNW,301,0.0,6.0,39,0.00,,---,0.00,VWS V14.01,2013-06-17 04:47:00,
2013-06-17 00:52:00,66.6,40.9,29.78,NW,309,2.0,6.0,39,0.00,,---,0.00,VWS V14.01,2013-06-17 04:52:00,
2013-06-17 00:57:00,67.1,41.3,29.78,WNW,299,6.0,6.0,39,0.00,,---,0.00,VWS V14.01,2013-06-17 04:57:00,
2013-06-17 01:00:00,66.4,40.7,29.77,West,262,1.0,3.0,39,0.00,,---,0.00,VWS V14.01,2013-06-17 05:00:00,
2013-06-17 01:02:00,67.4,40.9,29.78,WNW,300,2.0,2.0,38,0.00,,---,0.00,VWS V14.01,2013-06-17 05:02:00,
2013-06-17 01:07:00,67.6,41.1,29.78,WNW,301,0.0,4.0,38,0.00,,---,0.00,VWS V14.01,2013-06-17 05:07:00,
2013-06-17 01:12:00,67.6,41.1,29.78,WNW,301,1.0,4.0,38,0.00,,---,0.00,VWS V14.01,2013-06-17 05:12:00,
2013-06-17 01:17:00,67.3,40.8,29.77,WNW,301,0.0,4.0,38,0.00,,---,0.00,VWS V14.01,2013-06-17 05:17:00,
2013-06-17 01:22:00,67.1,41.3,29.77,WNW,301,0.0,4.0,39,0.00,,---,0.00,VWS V14.01,2013-06-17 05:22:00,
2013-06-17 01:27:00,66.8,41.1,29.77,WNW,301,0.0,4.0,39,0.00,,---,0.00,VWS V14.01,2013-06-17 05:27:00,
2013-06-17 01:30:00,65.8,40.2,29.77,West,262,1.0,3.0,39,0.00,,---,0.00,VWS V14.01,2013-06-17 05:30:00,
2013-06-17 01:32:00,66.4,40.7,29.78,WNW,301,0.0,0.0,39,0.00,,---,0.00,VWS V14.01,2013-06-17 05:32:00,
2013-06-17 01:37:00,66.1,40.5,29.78,WNW,301,0.0,0.0,39,0.00,,---,0.00,VWS V14.01,2013-06-17 05:37:00,
2013-06-17 01:42:00,65.8,40.2,29.78,WNW,301,0.0,0.0,39,0.00,,---,0.00,VWS V14.01,2013-06-17 05:42:00,
2013-06-17 01:47:00,65.5,39.9,29.78,WNW,301,0.0,0.0,39,0.00,,---,0.00,VWS V14.01,2013-06-17 05:47:00,
2013-06-17 01:52:00,65.2,39.6,29.78,WNW,301,0.0,0.0,39,0.00,,---,0.00,VWS V14.01,2013-06-17 05:52:00,
2013-06-17 01:57:00,64.7,39.2,29.78,WNW,301,0.0,0.0,39,0.00,,---,0.00,VWS V14.01,2013-06-17 05:57:00,
2013-06-17 02:00:00,67.4,40.9,29.78,WNW,300,1.0,7.0,38,0.00,,---,0.00,VWS V14.01,2013-06-17 06:00:00,
2013-06-17 02:02:00,64.3,38.8,29.78,WNW,301,0.0,0.0,39,0.00,,---,0.00,VWS V14.01,2013-06-17 06:02:00,
2013-06-17 02:07:00,64.2,38.8,29.78,WNW,301,0.0,0.0,39,0.00,,---,0.00,VWS V14.01,2013-06-17 06:07:00,
2013-06-17 02:12:00,63.9,38.5,29.78,WNW,301,0.0,0.0,39,0.00,,---,0.00,VWS V14.01,2013-06-17 06:12:00,
2013-06-17 02:17:00,63.5,38.1,29.78,WNW,301,0.0,0.0,39,0.00,,---,0.00,VWS V14.01,2013-06-17 06:17:00,
2013-06-17 02:22:00,63.4,38.0,29.78,WNW,301,0.0,0.0,39,0.00,,---,0.00,VWS V14.01,2013-06-17 06:22:00,
2013-06-17 02:27:00,63.2,37.9,29.78,WNW,301,0.0,0.0,39,0.00,,---,0.00,VWS V14.01,2013-06-17 06:27:00,
2013-06-17 02:30:00,66.4,40.7,29.78,WNW,301,0.0,4.0,39,0.00,,---,0.00,VWS V14.01,2013-06-17 06:30:00,
2013-06-17 02:32:00,62.9,37.6,29.78,WNW,301,0.0,0.0,39,0.00,,---,0.00,VWS V14.01,2013-06-17 06:32:00,
2013-06-17 02:37:00,62.7,38.0,29.78,WNW,301,0.0,0.0,40,0.00,,---,0.00,VWS V14.01,2013-06-17 06:37:00,
2013-06-17 02:42:00,62.6,38.0,29.78,WNW,301,0.0,0.0,40,0.00,,---,0.00,VWS V14.01,2013-06-17 06:42:00,
2013-06-17 02:47:00,62.3,37.7,29.79,WNW,301,0.0,0.0,40,0.00,,---,0.00,VWS V14.01,2013-06-17 06:47:00,
2013-06-17 02:52:00,62.1,37.5,29.79,WNW,301,0.0,0.0,40,0.00,,---,0.00,VWS V14.01,2013-06-17 06:52:00,
2013-06-17 02:57:00,62.0,37.4,29.79,WNW,301,0.0,0.0,40,0.00,,---,0.00,VWS V14.01,2013-06-17 06:57:00,
2013-06-17 03:00:00,64.5,39.0,29.78,WNW,301,0.0,0.0,39,0.00,,---,0.00,VWS V14.01,2013-06-17 07:00:00,
2013-06-17 03:02:00,61.8,37.2,29.79,WNW,301,0.0,0.0,40,0.00,,---,0.00,VWS V14.01,2013-06-17 07:02:00,
2013-06-17 03:07:00,61.8,37.2,29.79,WNW,301,0.0,0.0,40,0.00,,---,0.00,VWS V14.01,2013-06-17 07:07:00,
2013-06-17 03:12:00,61.8,37.2,29.79,WNW,301,0.0,0.0,40,0.00,,---,0.00,VWS V14.01,2013-06-17 07:12:00,
2013-06-17 03:17:00,61.5,37.0,29.79,WNW,301,0.0,0.0,40,0.00,,---,0.00,VWS V14.01,2013-06-17 07:17:00,
2013-06-17 03:22:00,61.3,36.8,29.79,WNW,301,0.0,0.0,40,0.00,,---,0.00,VWS V14.01,2013-06-17 07:22:00,
2013-06-17 03:27:00,61.2,36.7,29.79,WNW,301,0.0,0.0,40,0.00,,---,0.00,VWS V14.01,2013-06-17 07:27:00,
2013-06-17 03:30:00,62.9,37.6,29.78,WNW,301,0.0,0.0,39,0.00,,---,0.00,VWS V14.01,2013-06-17 07:30:00,
2013-06-17 03:32:00,61.0,36.5,29.80,WNW,301,0.0,0.0,40,0.00,,---,0.00,VWS V14.01,2013-06-17 07:32:00,
2013-06-17 03:37:00,60.9,36.4,29.80,WNW,301,0.0,0.0,40,0.00,,---,0.00,VWS V14.01,2013-06-17 07:37:00,
2013-06-17 03:42:00,60.7,36.3,29.80,WNW,301,0.0,0.0,40,0.00,,---,0.00,VWS V14.01,2013-06-17 07:42:00,
2013-06-17 03:47:00,60.7,36.3,29.80,WNW,301,0.0,0.0,40,0.00,,---,0.00,VWS V14.01,2013-06-17 07:47:00,
2013-06-17 03:52:00,60.5,36.1,29.80,WNW,301,0.0,0.0,40,0.00,,---,0.00,VWS V14.01,2013-06-17 07:52:00,
2013-06-17 03:57:00,60.5,36.1,29.80,WNW,301,1.0,1.0,40,0.00,,---,0.00,VWS V14.01,2013-06-17 07:57:00,
2013-06-17 04:00:00,61.8,37.2,29.79,WNW,301,0.0,0.0,40,0.00,,---,0.00,VWS V14.01,2013-06-17 08:00:00,
2013-06-17 04:02:00,60.4,36.0,29.80,WNW,301,0.0,0.0,40,0.00,,---,0.00,VWS V14.01,2013-06-17 08:02:00,
2013-06-17 04:07:00,60.1,35.7,29.80,WNW,301,0.0,0.0,40,0.00,,---,0.00,VWS V14.01,2013-06-17 08:07:00,
2013-06-17 04:12:00,60.1,35.7,29.80,WNW,301,0.0,0.0,40,0.00,,---,0.00,VWS V14.01,2013-06-17 08:12:00,
2013-06-17 04:18:00,60.1,35.7,29.80,WNW,301,0.0,0.0,40,0.00,,---,0.00,VWS V14.01,2013-06-17 08:18:00,
2013-06-17 04:23:00,60.1,35.7,29.80,WNW,301,0.0,0.0,40,0.00,,---,0.00,VWS V14.01,2013-06-17 08:23:00,
2013-06-17 04:28:00,59.8,35.5,29.80,WNW,301,0.0,0.0,40,0.00,,---,0.00,VWS V14.01,2013-06-17 08:28:00,
2013-06-17 04:30:00,61.0,36.5,29.80,WNW,301,0.0,0.0,40,0.00,,---,0.00,VWS V14.01,2013-06-17 08:30:00,
2013-06-17 04:33:00,59.6,35.3,29.80,WNW,301,0.0,0.0,40,0.00,,---,0.00,VWS V14.01,2013-06-17 08:33:00,
2013-06-17 04:38:00,59.5,35.2,29.80,WNW,301,0.0,0.0,40,0.00,,---,0.00,VWS V14.01,2013-06-17 08:38:00,
2013-06-17 04:43:00,59.5,35.2,29.80,WNW,301,0.0,0.0,40,0.00,,---,0.00,VWS V14.01,2013-06-17 08:43:00,
2013-06-17 04:48:00,59.5,35.2,29.80,WNW,301,0.0,0.0,40,0.00,,---,0.00,VWS V14.01,2013-06-17 08:48:00,
2013-06-17 04:53:00,59.5,35.2,29.80,WNW,301,0.0,0.0,40,0.00,,---,0.00,VWS V14.01,2013-06-17 08:53:00,
2013-06-17 04:58:00,59.5,35.2,29.80,WNW,301,0.0,0.0,40,0.00,,---,0.00,VWS V14.01,2013-06-17 08:58:00,
2013-06-17 05:00:00,60.4,36.0,29.80,WNW,301,0.0,2.0,40,0.00,,---,0.00,VWS V14.01,2013-06-17 09:00:00,
2013-06-17 05:03:00,59.5,35.2,29.80,WNW,301,0.0,0.0,40,0.00,,---,0.00,VWS V14.01,2013-06-17 09:03:00,
2013-06-17 05:08:00,59.3,35.0,29.80,WNW,301,0.0,0.0,40,0.00,,---,0.00,VWS V14.01,2013-06-17 09:08:00,
2013-06-17 05:13:00,59.2,34.9,29.80,WNW,301,0.0,0.0,40,0.00,,---,0.00,VWS V14.01,2013-06-17 09:13:00,
2013-06-17 05:18:00,59.2,34.9,29.80,WNW,301,0.0,0.0,40,0.00,,---,0.00,VWS V14.01,2013-06-17 09:18:00,
2013-06-17 05:23:00,59.0,34.7,29.80,WNW,301,0.0,0.0,40,0.00,,---,0.00,VWS V14.01,2013-06-17 09:23:00,
2013-06-17 05:28:00,59.0,34.7,29.80,WNW,301,0.0,0.0,40,0.00,,---,0.00,VWS V14.01,2013-06-17 09:28:00,
2013-06-17 05:30:00,59.6,35.3,29.80,WNW,301,0.0,0.0,40,0.00,,---,0.00,VWS V14.01,2013-06-17 09:30:00,
2013-06-17 05:33:00,59.2,34.9,29.81,WNW,301,0.0,0.0,40,0.00,,---,0.00,VWS V14.01,2013-06-17 09:33:00,
2013-06-17 05:38:00,59.0,34.7,29.81,WNW,301,0.0,0.0,40,0.00,,---,0.00,VWS V14.01,2013-06-17 09:38:00,
2013-06-17 05:43:00,59.2,34.9,29.81,WNW,301,0.0,0.0,40,0.00,,---,0.00,VWS V14.01,2013-06-17 09:43:00,
2013-06-17 05:48:00,59.0,34.7,29.80,WNW,301,0.0,0.0,40,0.00,,---,0.00,VWS V14.01,2013-06-17 09:48:00,
2013-06-17 05:53:00,59.2,34.9,29.80,WNW,301,0.0,0.0,40,0.00,,---,0.00,VWS V14.01,2013-06-17 09:53:00,
2013-06-17 05:58:00,59.3,35.0,29.80,WNW,301,0.0,0.0,40,0.00,,---,0.00,VWS V14.01,2013-06-17 09:58:00,
2013-06-17 06:00:00,59.5,35.2,29.80,WNW,301,0.0,0.0,40,0.00,,---,0.00,VWS V14.01,2013-06-17 10:00:00,
2013-06-17 06:03:00,59.6,35.3,29.81,WNW,301,0.0,0.0,40,0.00,,---,0.00,VWS V14.01,2013-06-17 10:03:00,
2013-06-17 06:08:00,59.9,35.5,29.81,WNW,301,0.0,0.0,40,0.00,,---,0.00,VWS V14.01,2013-06-17 10:08:00,
2013-06-17 06:13:00,60.4,36.0,29.81,WNW,301,0.0,0.0,40,0.00,,---,0.00,VWS V14.01,2013-06-17 10:13:00,
2013-06-17 06:18:00,60.9,36.4,29.82,WNW,301,0.0,0.0,40,0.00,,---,0.00,VWS V14.01,2013-06-17 10:18:00,
2013-06-17 06:23:00,60.9,36.4,29.82,WNW,301,0.0,0.0,40,0.00,,---,0.00,VWS V14.01,2013-06-17 10:23:00,
2013-06-17 06:28:00,60.7,36.3,29.82,WNW,301,0.0,0.0,40,0.00,,---,0.00,VWS V14.01,2013-06-17 10:28:00,
2013-06-17 06:30:00,59.2,34.9,29.81,WNW,301,0.0,0.0,40,0.00,,---,0.00,VWS V14.01,2013-06-17 10:30:00,
2013-06-17 06:33:00,60.9,36.4,29.83,WNW,301,0.0,0.0,40,0.00,,---,0.00,VWS V14.01,2013-06-17 10:33:00,
2013-06-17 06:38:00,61.3,36.8,29.83,WNW,301,0.0,0.0,40,0.00,,---,0.00,VWS V14.01,2013-06-17 10:38:00,
2013-06-17 06:43:00,61.5,37.0,29.83,WNW,301,0.0,0.0,40,0.00,,---,0.00,VWS V14.01,2013-06-17 10:43:00,
2013-06-17 06:48:00,61.6,37.1,29.83,WNW,301,0.0,0.0,40,0.00,,---,0.00,VWS V14.01,2013-06-17 10:48:00,
2013-06-17 06:53:00,62.0,37.4,29.83,WNW,301,0.0,0.0,40,0.00,,---,0.00,VWS V14.01,2013-06-17 10:53:00,
2013-06-17 06:58:00,62.1,37.5,29.83,WNW,301,0.0,0.0,40,0.00,,---,0.00,VWS V14.01,2013-06-17 10:58:00,
2013-06-17 07:00:00,59.5,35.2,29.81,WNW,301,0.0,0.0,40,0.00,,---,0.00,VWS V14.01,2013-06-17 11:00:00,
2013-06-17 07:03:00,62.6,38.0,29.83,WNW,301,0.0,0.0,40,0.00,,---,0.00,VWS V14.01,2013-06-17 11:03:00,
2013-06-17 07:08:00,63.2,38.5,29.83,WNW,301,0.0,2.0,40,0.00,,---,0.00,VWS V14.01,2013-06-17 11:08:00,
2013-06-17 07:13:00,63.9,39.1,29.83,WNW,301,0.0,2.0,40,0.00,,---,0.00,VWS V14.01,2013-06-17 11:13:00,
2013-06-17 07:18:00,64.3,39.5,29.83,WNW,301,1.0,2.0,40,0.00,,---,0.00,VWS V14.01,2013-06-17 11:18:00,
2013-06-17 07:23:00,64.7,39.8,29.83,WNW,301,0.0,2.0,40,0.00,,---,0.00,VWS V14.01,2013-06-17 11:23:00,
2013-06-17 07:28:00,65.2,40.3,29.83,WNW,301,0.0,2.0,40,0.00,,---,0.00,VWS V14.01,2013-06-17 11:28:00,
2013-06-17 07:30:00,60.7,36.3,29.83,WNW,301,0.0,0.0,40,0.00,,---,0.00,VWS V14.01,2013-06-17 11:30:00,
2013-06-17 07:33:00,66.0,41.0,29.83,NE,38,0.0,1.0,40,0.00,,---,0.00,VWS V14.01,2013-06-17 11:33:00,
2013-06-17 07:38:00,66.8,41.7,29.83,NE,37,0.0,1.0,40,0.00,,---,0.00,VWS V14.01,2013-06-17 11:38:00,
2013-06-17 07:43:00,67.6,42.4,29.83,West,274,1.0,4.0,40,0.00,,---,0.00,VWS V14.01,2013-06-17 11:43:00,
2013-06-17 07:48:00,68.1,42.2,29.83,West,273,1.0,4.0,39,0.00,,---,0.00,VWS V14.01,2013-06-17 11:48:00,
2013-06-17 07:53:00,68.8,42.9,29.83,West,275,0.0,4.0,39,0.00,,---,0.00,VWS V14.01,2013-06-17 11:53:00,
2013-06-17 07:58:00,69.1,43.1,29.83,West,267,2.0,5.0,39,0.00,,---,0.00,VWS V14.01,2013-06-17 11:58:00,
2013-06-17 08:00:00,62.4,37.8,29.83,WNW,301,0.0,0.0,40,0.00,,---,0.00,VWS V14.01,2013-06-17 12:00:00,
2013-06-17 08:03:00,69.6,43.6,29.83,West,272,0.0,1.0,39,0.00,,---,0.00,VWS V14.01,2013-06-17 12:03:00,
2013-06-17 08:08:00,70.4,44.3,29.83,West,274,0.0,4.0,39,0.00,,---,0.00,VWS V14.01,2013-06-17 12:08:00,
2013-06-17 08:13:00,70.8,44.0,29.83,WNW,290,4.0,9.0,38,0.00,,---,0.00,VWS V14.01,2013-06-17 12:13:00,
2013-06-17 08:18:00,71.3,44.4,29.83,West,261,2.0,9.0,38,0.00,,---,0.00,VWS V14.01,2013-06-17 12:18:00,
2013-06-17 08:23:00,71.6,44.7,29.83,WNW,283,0.0,11.0,38,0.00,,---,0.00,VWS V14.01,2013-06-17 12:23:00,
2013-06-17 08:28:00,72.3,45.3,29.83,West,276,4.0,11.0,38,0.00,,---,0.00,VWS V14.01,2013-06-17 12:28:00,
2013-06-17 08:30:00,65.6,40.7,29.83,NE,39,0.0,2.0,40,0.00,,---,0.00,VWS V14.01,2013-06-17 12:30:00,
2013-06-17 08:33:00,72.7,45.7,29.83,WNW,288,4.0,7.0,38,0.00,,---,0.00,VWS V14.01,2013-06-17 12:33:00,
2013-06-17 08:38:00,73.2,46.1,29.83,WNW,287,3.0,7.0,38,0.00,,---,0.00,VWS V14.01,2013-06-17 12:38:00,
2013-06-17 08:43:00,73.7,46.5,29.83,SW,225,1.0,7.0,38,0.00,,---,0.00,VWS V14.01,2013-06-17 12:43:00,
2013-06-17 08:48:00,74.0,46.8,29.83,NW,309,3.0,7.0,38,0.00,,---,0.00,VWS V14.01,2013-06-17 12:48:00,
2013-06-17 08:53:00,74.4,47.2,29.83,WNW,297,2.0,7.0,38,0.00,,---,0.00,VWS V14.01,2013-06-17 12:53:00,
2013-06-17 08:58:00,74.4,46.5,29.83,West,259,0.0,7.0,37,0.00,,---,0.00,VWS V14.01,2013-06-17 12:58:00,
2013-06-17 09:00:00,69.4,43.4,29.83,West,272,0.0,5.0,39,0.00,,---,0.00,VWS V14.01,2013-06-17 13:00:00,
2013-06-17 09:03:00,74.7,46.7,29.83,WNW,283,5.0,6.0,37,0.00,,---,0.00,VWS V14.01,2013-06-17 13:03:00,
2013-06-17 09:08:00,74.9,46.9,29.83,NNW,327,3.0,10.0,37,0.00,,---,0.00,VWS V14.01,2013-06-17 13:08:00,
2013-06-17 09:13:00,75.1,47.1,29.83,WNW,299,1.0,10.0,37,0.00,,---,0.00,VWS V14.01,2013-06-17 13:13:00,
2013-06-17 09:18:00,75.4,47.3,29.83,SSW,212,4.0,10.0,37,0.00,,---,0.00,VWS V14.01,2013-06-17 13:18:00,
2013-06-17 09:23:00,75.8,47.7,29.83,NW,304,2.0,10.0,37,0.00,,---,0.00,VWS V14.01,2013-06-17 13:23:00,
2013-06-17 09:28:00,76.1,48.0,29.83,NW,315,2.0,10.0,37,0.00,,---,0.00,VWS V14.01,2013-06-17 13:28:00,
2013-06-17 09:30:00,72.5,45.5,29.83,West,280,3.0,11.0,38,0.00,,---,0.00,VWS V14.01,2013-06-17 13:30:00,
2013-06-17 09:33:00,76.3,48.1,29.83,WSW,242,5.0,7.0,37,0.00,,---,0.00,VWS V14.01,2013-06-17 13:33:00,
2013-06-17 09:38:00,76.7,48.5,29.83,WSW,258,3.0,7.0,37,0.00,,---,0.00,VWS V14.01,2013-06-17 13:38:00,
2013-06-17 09:43:00,77.2,48.9,29.83,WNW,285,3.0,7.0,37,0.00,,---,0.00,VWS V14.01,2013-06-17 13:43:00,
2013-06-17 09:48:00,77.6,49.3,29.83,NW,307,4.0,10.0,37,0.00,,---,0.00,VWS V14.01,2013-06-17 13:48:00,
2013-06-17 09:54:00,77.7,49.4,29.83,NW,314,1.0,10.0,37,0.00,,---,0.00,VWS V14.01,2013-06-17 13:54:00,
2013-06-17 09:59:00,78.1,49.7,29.83,WNW,296,3.0,10.0,37,0.00,,---,0.00,VWS V14.01,2013-06-17 13:59:00,
2013-06-17 10:00:00,74.6,46.6,29.83,NW,323,4.0,7.0,37,0.00,,---,0.00,VWS V14.01,2013-06-17 14:00:00,
2013-06-17 10:04:00,78.3,49.2,29.83,West,278,1.0,4.0,36,0.00,,---,0.00,VWS V14.01,2013-06-17 14:04:00,
2013-06-17 10:09:00,79.0,49.8,29.83,West,265,2.0,5.0,36,0.00,,---,0.00,VWS V14.01,2013-06-17 14:09:00,
2013-06-17 10:14:00,79.4,50.2,29.83,NNW,343,3.0,7.0,36,0.00,,---,0.00,VWS V14.01,2013-06-17 14:14:00,
2013-06-17 10:19:00,79.6,50.3,29.83,NNW,336,2.0,7.0,36,0.00,,---,0.00,VWS V14.01,2013-06-17 14:19:00,
2013-06-17 10:24:00,79.4,50.2,29.83,NW,314,1.0,11.0,36,0.00,,---,0.00,VWS V14.01,2013-06-17 14:24:00,
2013-06-17 10:29:00,79.0,49.8,29.83,WSW,250,7.0,11.0,36,0.00,,---,0.00,VWS V14.01,2013-06-17 14:29:00,
2013-06-17 10:30:00,76.1,48.0,29.83,WNW,301,3.0,13.0,37,0.00,,---,0.00,VWS V14.01,2013-06-17 14:30:00,
2013-06-17 10:34:00,78.8,49.6,29.83,WNW,300,1.0,3.0,36,0.00,,---,0.00,VWS V14.01,2013-06-17 14:34:00,
2013-06-17 10:39:00,79.4,50.2,29.83,West,269,3.0,13.0,36,0.00,,---,0.00,VWS V14.01,2013-06-17 14:39:00,
2013-06-17 10:44:00,79.2,50.0,29.83,WSW,245,0.0,13.0,36,0.00,,---,0.00,VWS V14.01,2013-06-17 14:44:00,
2013-06-17 10:49:00,79.2,50.0,29.83,WNW,292,2.0,13.0,36,0.00,,---,0.00,VWS V14.01,2013-06-17 14:49:00,
2013-06-17 10:54:00,79.4,50.2,29.83,West,274,4.0,13.0,36,0.00,,---,0.00,VWS V14.01,2013-06-17 14:54:00,
2013-06-17 10:59:00,79.6,50.3,29.83,NNW,328,1.0,13.0,36,0.00,,---,0.00,VWS V14.01,2013-06-17 14:59:00,
2013-06-17 11:00:00,78.1,49.0,29.83,North,0,4.0,10.0,36,0.00,,---,0.00,VWS V14.01,2013-06-17 15:00:00,
2013-06-17 11:04:00,79.9,50.6,29.82,WSW,250,3.0,9.0,36,0.00,,---,0.00,VWS V14.01,2013-06-17 15:04:00,
2013-06-17 11:09:00,79.9,50.6,29.82,SW,233,9.0,15.0,36,0.00,,---,0.00,VWS V14.01,2013-06-17 15:09:00,
2013-06-17 11:14:00,79.9,50.6,29.82,NW,311,5.0,15.0,36,0.00,,---,0.00,VWS V14.01,2013-06-17 15:14:00,
2013-06-17 11:19:00,80.5,51.1,29.82,NW,321,1.0,15.0,36,0.00,,---,0.00,VWS V14.01,2013-06-17 15:19:00,
2013-06-17 11:24:00,80.7,51.3,29.82,West,280,8.0,15.0,36,0.00,,---,0.00,VWS V14.01,2013-06-17 15:24:00,
2013-06-17 11:29:00,80.5,51.1,29.82,West,261,1.0,15.0,36,0.00,,---,0.00,VWS V14.01,2013-06-17 15:29:00,
2013-06-17 11:30:00,78.8,49.6,29.83,WNW,301,0.0,11.0,36,0.00,,---,0.00,VWS V14.01,2013-06-17 15:30:00,
2013-06-17 11:34:00,80.7,51.3,29.81,West,281,7.0,10.0,36,0.00,,---,0.00,VWS V14.01,2013-06-17 15:34:00,
2013-06-17 11:39:00,80.3,50.9,29.81,WNW,290,6.0,11.0,36,0.00,,---,0.00,VWS V14.01,2013-06-17 15:39:00,
2013-06-17 11:44:00,79.9,50.6,29.81,SSW,205,6.0,15.0,36,0.00,,---,0.00,VWS V14.01,2013-06-17 15:44:00,
2013-06-17 11:49:00,79.9,50.6,29.81,WSW,257,1.0,18.0,36,0.00,,---,0.00,VWS V14.01,2013-06-17 15:49:00,
2013-06-17 11:54:00,80.3,50.9,29.81,SW,215,3.0,18.0,36,0.00,,---,0.00,VWS V14.01,2013-06-17 15:54:00,
2013-06-17 11:59:00,80.9,51.5,29.81,SW,215,3.0,18.0,36,0.00,,---,0.00,VWS V14.01,2013-06-17 15:59:00,
2013-06-17 12:00:00,79.8,50.5,29.82,NW,311,4.0,13.0,36,0.00,,---,0.00,VWS V14.01,2013-06-17 16:00:00,
2013-06-17 12:04:00,81.6,52.1,29.81,SSW,193,5.0,11.0,36,0.00,,---,0.00,VWS V14.01,2013-06-17 16:04:00,
2013-06-17 12:09:00,81.1,51.7,29.81,SSW,207,10.0,14.0,36,0.00,,---,0.00,VWS V14.01,2013-06-17 16:09:00,
2013-06-17 12:14:00,80.5,51.1,29.81,WSW,241,5.0,15.0,36,0.00,,---,0.00,VWS V14.01,2013-06-17 16:14:00,
2013-06-17 12:19:00,80.5,51.1,29.81,West,269,4.0,15.0,36,0.00,,---,0.00,VWS V14.01,2013-06-17 16:19:00,
2013-06-17 12:24:00,80.3,50.9,29.81,WNW,283,4.0,15.0,36,0.00,,---,0.00,VWS V14.01,2013-06-17 16:24:00,
2013-06-17 12:29:00,80.9,51.5,29.81,SW,224,9.0,15.0,36,0.00,,---,0.00,VWS V14.01,2013-06-17 16:29:00,
2013-06-17 12:30:00,80.7,51.3,29.81,WNW,284,5.0,15.0,36,0.00,,---,0.00,VWS V14.01,2013-06-17 16:30:00,
2013-06-17 12:34:00,80.7,51.3,29.82,WSW,243,5.0,15.0,36,0.00,,---,0.00,VWS V14.01,2013-06-17 16:34:00,
2013-06-17 12:39:00,81.4,51.9,29.82,SSE,159,7.0,15.0,36,0.00,,---,0.00,VWS V14.01,2013-06-17 16:39:00,
2013-06-17 12:44:00,82.4,52.8,29.82,West,261,1.0,15.0,36,0.00,,---,0.00,VWS V14.01,2013-06-17 16:44:00,
2013-06-17 12:49:00,81.6,52.1,29.82,SW,225,15.0,16.0,36,0.00,,---,0.00,VWS V14.01,2013-06-17 16:49:00,
2013-06-17 12:54:00,80.9,51.5,29.82,SSW,205,5.0,16.0,36,0.00,,---,0.00,VWS V14.01,2013-06-17 16:54:00,
2013-06-17 12:59:00,81.6,51.3,29.82,West,266,1.0,16.0,35,0.00,,---,0.00,VWS V14.01,2013-06-17 16:59:00,
2013-06-17 13:00:00,81.2,51.7,29.81,West,260,4.0,18.0,36,0.00,,---,0.00,VWS V14.01,2013-06-17 17:00:00,
2013-06-17 13:04:00,82.2,51.8,29.81,West,278,10.0,10.0,35,0.00,,---,0.00,VWS V14.01,2013-06-17 17:04:00,
2013-06-17 13:09:00,82.2,51.8,29.81,SW,225,11.0,14.0,35,0.00,,---,0.00,VWS V14.01,2013-06-17 17:09:00,
2013-06-17 13:14:00,81.6,52.1,29.81,SW,219,7.0,14.0,36,0.00,,---,0.00,VWS V14.01,2013-06-17 17:14:00,
2013-06-17 13:19:00,82.0,51.7,29.81,SW,226,4.0,14.0,35,0.00,,---,0.00,VWS V14.01,2013-06-17 17:19:00,
2013-06-17 13:24:00,82.0,51.7,29.81,SW,236,6.0,14.0,35,0.00,,---,0.00,VWS V14.01,2013-06-17 17:24:00,
2013-06-17 13:29:00,81.6,52.1,29.81,SSW,205,4.0,15.0,36,0.00,,---,0.00,VWS V14.01,2013-06-17 17:29:00,
2013-06-17 13:30:00,80.5,51.1,29.82,SSW,203,12.0,15.0,36,0.00,,---,0.00,VWS V14.01,2013-06-17 17:30:00,
2013-06-17 13:34:00,82.6,52.2,29.81,SW,234,4.0,7.0,35,0.00,,---,0.00,VWS V14.01,2013-06-17 17:34:00,
2013-06-17 13:39:00,82.8,53.2,29.81,South,188,2.0,11.0,36,0.00,,---,0.00,VWS V14.01,2013-06-17 17:39:00,
2013-06-17 13:44:00,83.0,52.6,29.81,SSW,205,4.0,11.0,35,0.00,,---,0.00,VWS V14.01,2013-06-17 17:44:00,
2013-06-17 13:49:00,83.0,52.6,29.80,SW,221,9.0,14.0,35,0.00,,---,0.00,VWS V14.01,2013-06-17 17:49:00,
2013-06-17 13:54:00,82.8,52.4,29.80,South,180,6.0,14.0,35,0.00,,---,0.00,VWS V14.01,2013-06-17 17:54:00,
2013-06-17 13:59:00,82.4,52.0,29.80,SW,215,10.0,15.0,35,0.00,,---,0.00,VWS V14.01,2013-06-17 17:59:00,
2013-06-17 14:00:00,81.8,52.3,29.81,West,276,1.0,16.0,36,0.00,,---,0.00,VWS V14.01,2013-06-17 18:00:00,
2013-06-17 14:04:00,82.2,51.8,29.80,WNW,286,2.0,7.0,35,0.00,,---,0.00,VWS V14.01,2013-06-17 18:04:00,
2013-06-17 14:09:00,82.6,52.2,29.80,SSW,195,5.0,11.0,35,0.00,,---,0.00,VWS V14.01,2013-06-17 18:09:00,
2013-06-17 14:14:00,82.8,52.4,29.80,SW,229,6.0,12.0,35,0.00,,---,0.00,VWS V14.01,2013-06-17 18:14:00,
2013-06-17 14:19:00,82.8,52.4,29.80,SSW,201,8.0,12.0,35,0.00,,---,0.00,VWS V14.01,2013-06-17 18:19:00,
2013-06-17 14:24:00,83.0,52.6,29.80,SW,226,11.0,14.0,35,0.00,,---,0.00,VWS V14.01,2013-06-17 18:24:00,
2013-06-17 14:29:00,82.2,51.8,29.80,WSW,243,10.0,15.0,35,0.00,,---,0.00,VWS V14.01,2013-06-17 18:29:00,
2013-06-17 14:30:00,82.4,52.0,29.81,SW,223,3.0,15.0,35,0.00,,---,0.00,VWS V14.01,2013-06-17 18:30:00,
2013-06-17 14:34:00,81.4,51.2,29.80,SSW,200,7.0,14.0,35,0.00,,---,0.00,VWS V14.01,2013-06-17 18:34:00,
2013-06-17 14:39:00,81.1,50.9,29.80,South,180,8.0,14.0,35,0.00,,---,0.00,VWS V14.01,2013-06-17 18:39:00,
2013-06-17 14:44:00,80.5,51.1,29.80,SSE,164,4.0,14.0,36,0.00,,---,0.00,VWS V14.01,2013-06-17 18:44:00,
2013-06-17 14:49:00,80.1,50.8,29.80,West,266,10.0,14.0,36,0.00,,---,0.00,VWS V14.01,2013-06-17 18:49:00,
2013-06-17 14:54:00,79.4,50.2,29.80,SW,221,6.0,14.0,36,0.00,,---,0.00,VWS V14.01,2013-06-17 18:54:00,
2013-06-17 14:59:00,78.6,49.4,29.80,SSW,195,4.0,14.0,36,0.00,,---,0.00,VWS V14.01,2013-06-17 18:59:00,
2013-06-17 15:00:00,82.2,51.8,29.80,SW,234,3.0,15.0,35,0.00,,---,0.00,VWS V14.01,2013-06-17 19:00:00,
2013-06-17 15:04:00,78.1,49.7,29.80,South,182,6.0,10.0,37,0.00,,---,0.00,VWS V14.01,2013-06-17 19:04:00,
2013-06-17 15:09:00,77.6,49.3,29.80,SW,236,6.0,12.0,37,0.00,,---,0.00,VWS V14.01,2013-06-17 19:09:00,
2013-06-17 15:14:00,77.6,49.3,29.80,SSW,201,7.0,12.0,37,0.00,,---,0.00,VWS V14.01,2013-06-17 19:14:00,
2013-06-17 15:19:00,77.2,48.9,29.79,SW,217,4.0,12.0,37,0.00,,---,0.00,VWS V14.01,2013-06-17 19:19:00,
2013-06-17 15:24:00,77.0,48.8,29.79,SSW,200,1.0,12.0,37,0.00,,---,0.00,VWS V14.01,2013-06-17 19:24:00,
2013-06-17 15:29:00,77.7,49.4,29.79,SSW,194,4.0,12.0,37,0.00,,---,0.00,VWS V14.01,2013-06-17 19:29:00,
2013-06-17 15:30:00,81.8,51.5,29.80,SSW,203,5.0,15.0,35,0.00,,---,0.00,VWS V14.01,2013-06-17 19:30:00,
2013-06-17 15:34:00,77.9,49.6,29.78,South,189,2.0,6.0,37,0.00,,---,0.00,VWS V14.01,2013-06-17 19:34:00,
2013-06-17 15:39:00,78.8,49.6,29.78,SW,235,3.0,7.0,36,0.00,,---,0.00,VWS V14.01,2013-06-17 19:39:00,
2013-06-17 15:44:00,79.4,50.2,29.78,SSW,210,5.0,11.0,36,0.00,,---,0.00,VWS V14.01,2013-06-17 19:44:00,
2013-06-17 15:49:00,79.4,50.2,29.78,SSE,165,6.0,12.0,36,0.00,,---,0.00,VWS V14.01,2013-06-17 19:49:00,
2013-06-17 15:54:00,79.2,50.0,29.78,WSW,255,5.0,12.0,36,0.00,,---,0.00,VWS V14.01,2013-06-17 19:54:00,
2013-06-17 15:59:00,79.6,50.3,29.78,SSW,207,7.0,12.0,36,0.00,,---,0.00,VWS V14.01,2013-06-17 19:59:00,
2013-06-17 16:00:00,78.3,49.2,29.80,SW,220,3.0,14.0,36,0.00,,---,0.00,VWS V14.01,2013-06-17 20:00:00,
2013-06-17 16:04:00,79.8,50.5,29.80,WSW,240,6.0,9.0,36,0.00,,---,0.00,VWS V14.01,2013-06-17 20:04:00,
2013-06-17 16:09:00,79.9,50.6,29.80,NNW,330,2.0,12.0,36,0.00,,---,0.00,VWS V14.01,2013-06-17 20:09:00,
2013-06-17 16:14:00,79.8,50.5,29.80,WSW,255,4.0,14.0,36,0.00,,---,0.00,VWS V14.01,2013-06-17 20:14:00,
2013-06-17 16:19:00,79.2,50.0,29.79,SSW,207,9.0,15.0,36,0.00,,---,0.00,VWS V14.01,2013-06-17 20:19:00,
2013-06-17 16:24:00,79.0,49.8,29.79,WNW,300,6.0,15.0,36,0.00,,---,0.00,VWS V14.01,2013-06-17 20:24:00,
2013-06-17 16:29:00,79.2,50.0,29.79,SW,225,12.0,15.0,36,0.00,,---,0.00,VWS V14.01,2013-06-17 20:29:00,
2013-06-17 16:30:00,77.9,49.6,29.78,SSW,210,4.0,12.0,37,0.00,,---,0.00,VWS V14.01,2013-06-17 20:30:00,
2013-06-17 16:34:00,78.6,49.4,29.79,WSW,247,3.0,12.0,36,0.00,,---,0.00,VWS V14.01,2013-06-17 20:34:00,
2013-06-17 16:39:00,78.6,49.4,29.79,SSW,207,2.0,12.0,36,0.00,,---,0.00,VWS V14.01,2013-06-17 20:39:00,
2013-06-17 16:44:00,79.0,49.8,29.79,SW,228,1.0,12.0,36,0.00,,---,0.00,VWS V14.01,2013-06-17 20:44:00,
2013-06-17 16:49:00,79.0,49.8,29.79,South,188,3.0,12.0,36,0.00,,---,0.00,VWS V14.01,2013-06-17 20:49:00,
2013-06-17 16:54:00,79.0,49.8,29.79,SSE,168,7.0,13.0,36,0.00,,---,0.00,VWS V14.01,2013-06-17 20:54:00,
2013-06-17 16:59:00,79.0,49.8,29.79,SW,218,11.0,14.0,36,0.00,,---,0.00,VWS V14.01,2013-06-17 20:59:00,
2013-06-17 17:00:00,79.6,50.3,29.80,WSW,255,9.0,13.0,36,0.00,,---,0.00,VWS V14.01,2013-06-17 21:00:00,
2013-06-17 17:04:00,79.0,49.8,29.78,WNW,301,6.0,9.0,36,0.00,,---,0.00,VWS V14.01,2013-06-17 21:04:00,
2013-06-17 17:09:00,79.2,50.0,29.78,SW,219,7.0,9.0,36,0.00,,---,0.00,VWS V14.01,2013-06-17 21:09:00,
2013-06-17 17:14:00,79.2,50.0,29.78,South,191,5.0,16.0,36,0.00,,---,0.00,VWS V14.01,2013-06-17 21:14:00,
2013-06-17 17:19:00,78.8,49.6,29.78,SW,220,9.0,16.0,36,0.00,,---,0.00,VWS V14.01,2013-06-17 21:19:00,
2013-06-17 17:24:00,79.2,50.0,29.78,SW,215,8.0,16.0,36,0.00,,---,0.00,VWS V14.01,2013-06-17 21:24:00,
2013-06-17 17:29:00,79.2,50.0,29.78,WSW,253,4.0,16.0,36,0.00,,---,0.00,VWS V14.01,2013-06-17 21:29:00,
2013-06-17 17:30:00,79.0,49.8,29.79,SW,214,6.0,15.0,36,0.00,,---,0.00,VWS V14.01,2013-06-17 21:30:00,
2013-06-17 17:34:00,79.2,50.0,29.78,WNW,282,5.0,11.0,36,0.00,,---,0.00,VWS V14.01,2013-06-17 21:34:00,
2013-06-17 17:39:00,79.4,50.2,29.78,West,268,6.0,11.0,36,0.00,,---,0.00,VWS V14.01,2013-06-17 21:39:00,
2013-06-17 17:44:00,79.6,50.3,29.78,SW,229,12.0,12.0,36,0.00,,---,0.00,VWS V14.01,2013-06-17 21:44:00,
2013-06-17 17:49:00,79.6,50.3,29.78,South,176,8.0,12.0,36,0.00,,---,0.00,VWS V14.01,2013-06-17 21:49:00,
2013-06-17 17:54:00,78.6,49.4,29.78,SW,220,6.0,21.0,36,0.00,,---,0.00,VWS V14.01,2013-06-17 21:54:00,
2013-06-17 17:59:00,78.5,49.3,29.78,SSW,201,5.0,21.0,36,0.00,,---,0.00,VWS V14.01,2013-06-17 21:59:00,
2013-06-17 18:00:00,78.8,49.6,29.78,SW,216,9.0,14.0,36,0.00,,---,0.00,VWS V14.01,2013-06-17 22:00:00,
2013-06-17 18:04:00,77.7,49.4,29.78,SW,216,10.0,15.0,37,0.00,,---,0.00,VWS V14.01,2013-06-17 22:04:00,
2013-06-17 18:09:00,77.4,49.1,29.78,SSW,193,6.0,18.0,37,0.00,,---,0.00,VWS V14.01,2013-06-17 22:09:00,
2013-06-17 18:14:00,77.2,48.9,29.78,SW,218,3.0,18.0,37,0.00,,---,0.00,VWS V14.01,2013-06-17 22:14:00,
2013-06-17 18:19:00,77.4,49.1,29.78,WNW,285,3.0,18.0,37,0.00,,---,0.00,VWS V14.01,2013-06-17 22:19:00,
2013-06-17 18:24:00,76.8,48.6,29.78,SW,231,6.0,18.0,37,0.00,,---,0.00,VWS V14.01,2013-06-17 22:24:00,
2013-06-17 18:29:00,76.3,48.1,29.78,SSW,210,4.0,18.0,37,0.00,,---,0.00,VWS V14.01,2013-06-17 22:29:00,
2013-06-17 18:30:00,79.2,50.0,29.78,SW,221,9.0,16.0,36,0.00,,---,0.00,VWS V14.01,2013-06-17 22:30:00,
2013-06-17 18:34:00,76.0,47.9,29.79,West,260,5.0,10.0,37,0.00,,---,0.00,VWS V14.01,2013-06-17 22:34:00,
2013-06-17 18:39:00,75.8,47.7,29.79,North,11,5.0,10.0,37,0.00,,---,0.00,VWS V14.01,2013-06-17 22:39:00,
2013-06-17 18:44:00,75.1,46.3,29.79,North,358,11.0,20.0,36,0.00,,---,0.00,VWS V14.01,2013-06-17 22:44:00,
2013-06-17 18:49:00,74.2,45.6,29.84,NNE,13,3.0,20.0,36,0.00,,---,0.00,VWS V14.01,2013-06-17 22:49:00,
2013-06-17 18:54:00,73.3,44.8,29.84,NNW,338,0.0,20.0,36,0.00,,---,0.00,VWS V14.01,2013-06-17 22:54:00,
2013-06-17 18:59:00,72.5,44.1,29.84,North,0,2.0,20.0,36,0.00,,---,0.00,VWS V14.01,2013-06-17 22:59:00,
2013-06-17 19:00:00,78.1,49.0,29.78,SW,224,12.0,21.0,36,0.00,,---,0.00,VWS V14.01,2013-06-17 23:00:00,
2013-06-17 19:04:00,71.5,43.9,29.84,North,1,2.0,7.0,37,0.00,,---,0.00,VWS V14.01,2013-06-17 23:04:00,
2013-06-17 19:09:00,69.9,42.5,29.84,NNE,25,3.0,7.0,37,0.00,,---,0.00,VWS V14.01,2013-06-17 23:09:00,
2013-06-17 19:14:00,68.8,42.2,29.84,NNE,16,2.0,7.0,38,0.01,,---,0.01,VWS V14.01,2013-06-17 23:14:00,
2013-06-17 19:19:00,68.1,41.6,29.85,NNE,16,0.0,7.0,38,0.01,,---,0.01,VWS V14.01,2013-06-17 23:19:00,
2013-06-17 19:24:00,67.4,40.9,29.85,North,4,0.0,7.0,38,0.02,,---,0.02,VWS V14.01,2013-06-17 23:24:00,
2013-06-17 19:29:00,66.8,41.1,29.85,WSW,242,2.0,7.0,39,0.03,,---,0.03,VWS V14.01,2013-06-17 23:29:00,
2013-06-17 19:30:00,76.1,48.0,29.79,SSW,205,6.0,18.0,37,0.00,,---,0.00,VWS V14.01,2013-06-17 23:30:00,
2013-06-17 19:35:00,66.1,40.5,29.86,WSW,243,1.0,1.0,39,0.05,,---,0.05,VWS V14.01,2013-06-17 23:35:00,
2013-06-17 19:40:00,65.6,40.0,29.86,WSW,243,0.0,4.0,39,0.07,,---,0.07,VWS V14.01,2013-06-17 23:40:00,
2013-06-17 19:45:00,65.2,39.6,29.86,SW,233,0.0,4.0,39,0.12,,---,0.12,VWS V14.01,2013-06-17 23:45:00,
2013-06-17 19:50:00,65.0,39.5,29.84,SW,233,0.0,4.0,39,0.13,,---,0.13,VWS V14.01,2013-06-17 23:50:00,
2013-06-17 19:55:00,64.8,39.3,29.84,SW,233,0.0,4.0,39,0.13,,---,0.13,VWS V14.01,2013-06-17 23:55:00,
2013-06-17 20:00:00,65.0,39.5,29.84,SW,233,0.0,4.0,39,0.13,,---,0.13,VWS V14.01,2013-06-18 00:00:00,
2013-06-17 20:05:00,64.8,39.9,29.85,SW,233,0.0,1.0,40,0.13,,---,0.13,VWS V14.01,2013-06-18 00:05:00,
2013-06-17 20:10:00,64.7,39.8,29.85,SW,233,0.0,1.0,40,0.13,,---,0.13,VWS V14.01,2013-06-18 00:10:00,
2013-06-17 20:15:00,64.7,39.8,29.85,SW,234,0.0,1.0,40,0.13,,---,0.13,VWS V14.01,2013-06-18 00:15:00,
2013-06-17 20:20:00,64.8,39.9,29.85,SW,234,0.0,1.0,40,0.13,,---,0.13,VWS V14.01,2013-06-18 00:20:00,
2013-06-17 20:25:00,64.8,39.9,29.85,SW,233,0.0,1.0,40,0.13,,---,0.13,VWS V14.01,2013-06-18 00:25:00,
2013-06-17 20:30:00,65.0,40.1,29.85,SW,233,0.0,1.0,40,0.13,,---,0.13,VWS V14.01,2013-06-18 00:30:00,
2013-06-17 20:35:00,64.8,39.9,29.84,SW,233,0.0,0.0,40,0.09,,---,0.13,VWS V14.01,2013-06-18 00:35:00,
2013-06-17 20:40:00,64.7,39.8,29.84,WSW,255,0.0,3.0,40,0.09,,---,0.13,VWS V14.01,2013-06-18 00:40:00,
2013-06-17 20:45:00,64.3,39.5,29.84,WSW,255,0.0,3.0,40,0.09,,---,0.13,VWS V14.01,2013-06-18 00:45:00,
2013-06-17 20:50:00,64.3,39.5,29.84,WSW,255,0.0,3.0,40,0.09,,---,0.13,VWS V14.01,2013-06-18 00:50:00,
2013-06-17 20:55:00,64.2,39.4,29.84,WSW,255,0.0,3.0,40,0.09,,---,0.13,VWS V14.01,2013-06-18 00:55:00,
2013-06-17 21:00:00,64.2,39.4,29.84,WSW,255,0.0,3.0,40,0.09,,---,0.13,VWS V14.01,2013-06-18 01:00:00,
2013-06-17 21:05:00,64.2,39.4,29.84,WSW,255,0.0,1.0,40,0.00,,---,0.13,VWS V14.01,2013-06-18 01:05:00,
2013-06-17 21:10:00,64.0,39.2,29.84,WSW,255,0.0,2.0,40,0.00,,---,0.13,VWS V14.01,2013-06-18 01:10:00,
2013-06-17 21:15:00,64.0,39.2,29.84,WSW,255,0.0,2.0,40,0.00,,---,0.13,VWS V14.01,2013-06-18 01:15:00,
2013-06-17 21:20:00,64.0,39.2,29.84,WSW,255,0.0,2.0,40,0.00,,---,0.13,VWS V14.01,2013-06-18 01:20:00,
2013-06-17 21:25:00,63.9,39.1,29.84,WSW,255,0.0,2.0,40,0.00,,---,0.13,VWS V14.01,2013-06-18 01:25:00,
2013-06-17 21:30:00,63.7,39.0,29.84,WSW,255,0.0,2.0,40,0.00,,---,0.13,VWS V14.01,2013-06-18 01:30:00,
2013-06-17 21:35:00,63.7,39.0,29.85,WSW,255,0.0,0.0,40,0.00,,---,0.13,VWS V14.01,2013-06-18 01:35:00,
2013-06-17 21:40:00,63.7,39.0,29.85,WSW,255,0.0,0.0,40,0.00,,---,0.13,VWS V14.01,2013-06-18 01:40:00,
2013-06-17 21:45:00,63.7,39.0,29.85,WSW,255,0.0,0.0,40,0.00,,---,0.13,VWS V14.01,2013-06-18 01:45:00,
2013-06-17 21:50:00,63.7,39.0,29.86,WSW,255,0.0,0.0,40,0.00,,---,0.13,VWS V14.01,2013-06-18 01:50:00,
2013-06-17 21:55:00,63.7,39.0,29.86,WSW,255,0.0,0.0,40,0.00,,---,0.13,VWS V14.01,2013-06-18 01:55:00,
2013-06-17 22:00:00,63.7,39.0,29.86,WSW,255,1.0,3.0,40,0.00,,---,0.13,VWS V14.01,2013-06-18 02:00:00,
2013-06-17 22:05:00,63.7,39.0,29.87,WSW,255,0.0,0.0,40,0.00,,---,0.13,VWS V14.01,2013-06-18 02:05:00,
2013-06-17 22:10:00,63.7,39.0,29.87,WSW,255,0.0,0.0,40,0.00,,---,0.13,VWS V14.01,2013-06-18 02:10:00,
2013-06-17 22:15:00,63.7,39.0,29.87,WSW,255,0.0,3.0,40,0.00,,---,0.13,VWS V14.01,2013-06-18 02:15:00,
2013-06-17 22:20:00,63.5,38.8,29.87,WSW,255,0.0,3.0,40,0.00,,---,0.13,VWS V14.01,2013-06-18 02:20:00,
2013-06-17 22:25:00,63.5,38.8,29.87,WSW,255,0.0,3.0,40,0.00,,---,0.13,VWS V14.01,2013-06-18 02:25:00,
2013-06-17 22:30:00,63.9,39.1,29.87,WSW,255,1.0,3.0,40,0.00,,---,0.13,VWS V14.01,2013-06-18 02:30:00,
2013-06-17 22:35:00,63.7,39.0,29.88,SSW,194,0.0,5.0,40,0.00,,---,0.13,VWS V14.01,2013-06-18 02:35:00,
2013-06-17 22:40:00,63.7,39.0,29.88,SSW,194,0.0,5.0,40,0.00,,---,0.13,VWS V14.01,2013-06-18 02:40:00,
2013-06-17 22:45:00,63.7,39.0,29.88,SSW,194,0.0,5.0,40,0.00,,---,0.13,VWS V14.01,2013-06-18 02:45:00,
2013-06-17 22:50:00,63.5,38.8,29.87,SSW,194,0.0,5.0,40,0.00,,---,0.13,VWS V14.01,2013-06-18 02:50:00,
2013-06-17 22:55:00,63.5,38.8,29.87,SSW,194,0.0,5.0,40,0.00,,---,0.13,VWS V14.01,2013-06-18 02:55:00,
2013-06-17 23:00:00,63.5,38.8,29.87,SSW,194,0.0,5.0,40,0.00,,---,0.13,VWS V14.01,2013-06-18 03:00:00,
2013-06-17 23:05:00,63.5,38.8,29.87,SSW,194,0.0,2.0,40,0.00,,---,0.00,VWS V14.01,2013-06-18 03:05:00,
2013-06-17 23:10:00,63.5,38.8,29.87,SSW,194,0.0,2.0,40,0.00,,---,0.00,VWS V14.01,2013-06-18 03:10:00,
2013-06-17 23:15:00,63.5,38.8,29.87,SSW,194,0.0,2.0,40,0.00,,---,0.00,VWS V14.01,2013-06-18 03:15:00,
2013-06-17 23:20:00,63.5,38.8,29.88,SSW,194,3.0,4.0,40,0.00,,---,0.00,VWS V14.01,2013-06-18 03:20:00,
2013-06-17 23:25:00,63.4,38.7,29.88,SSW,212,4.0,5.0,40,0.00,,---,0.00,VWS V14.01,2013-06-18 03:25:00,
2013-06-17 23:30:00,63.1,38.4,29.88,SSW,212,0.0,5.0,40,0.00,,---,0.00,VWS V14.01,2013-06-18 03:30:00,
2013-06-17 23:35:00,63.1,38.4,29.87,SSW,212,0.0,0.0,40,0.00,,---,0.00,VWS V14.01,2013-06-18 03:35:00,
2013-06-17 23:40:00,62.9,38.2,29.87,SSW,212,0.0,0.0,40,0.00,,---,0.00,VWS V14.01,2013-06-18 03:40:00,
2013-06-17 23:45:00,62.9,38.2,29.87,SSW,212,0.0,0.0,40,0.00,,---,0.00,VWS V14.01,2013-06-18 03:45:00,
2013-06-17 23:50:00,62.9,38.2,29.87,SSW,212,0.0,0.0,40,0.00,,---,0.00,VWS V14.01,2013-06-18 03:50:00,
2013-06-17 23:55:00,62.9,38.2,29.87,SSW,212,0.0,0.0,40,0.00,,---,0.00,VWS V14.01,2013-06-18 03:55:00,